Time;durP1;ratioP1;P1;durP2;ratioP2;P2;SDS_P1;SDS_P2;PMS_P1;PMS_P2;Temp;Humidity;BMP_temperature;BMP_pressure;BME280_temperature;BME280_humidity;BME280_pressure;Samples;Min_cycle;Max_cycle;Signal;HPM_P1;HPM_P2
2024/01/12 00:01:12;;;;;;;;;;;;;;;6.65;39.54;100447.09;4471251;32;35093;-70
2024/01/12 00:03:40;;;;;;;;;;;;;;;7.11;38.52;100455.44;4480014;32;33984;-69
2024/01/12 00:06:07;;;;;;;;;;;;;;;7.63;37.62;100446.09;4465714;32;34090;-69
2024/01/12 00:08:36;;;;;;;;;;;;;;;7.65;37.45;100452.25;4479644;32;34305;-70
2024/01/12 00:11:06;;;;;;;;;;;;;;;8.07;36.60;100442.97;4477885;32;32701;-70
2024/01/12 00:13:33;;;;;;;;;;;;;;;7.67;37.27;100449.78;4476003;32;35160;-69
2024/01/12 00:16:07;;;;;;;;;;;;;;;8.09;36.67;100445.62;4474709;32;34187;-70
2024/01/12 00:18:34;;;;;;;;;;;;;;;7.59;37.43;100446.69;4473835;32;33414;-71
2024/01/12 00:21:03;;;;;;;;;;;;;;;8.13;36.46;100441.56;4461548;32;34171;-69
2024/01/12 00:23:31;;;;;;;;;;;;;;;8.24;36.14;100440.56;4475886;32;33713;-70
2024/01/12 00:25:59;;;;;;;;;;;;;;;8.45;35.91;100431.62;4454072;32;31861;-69
2024/01/12 00:28:27;;;;;;;;;;;;;;;8.24;36.23;100430.25;4461784;32;32737;-70
2024/01/12 00:30:54;;;;;;;;;;;;;;;8.35;35.84;100434.41;4479720;32;34141;-70
2024/01/12 00:33:22;;;;;;;;;;;;;;;8.61;35.55;100437.78;4476548;32;33817;-70
2024/01/12 00:35:50;;;;;;;;;;;;;;;7.89;36.74;100452.06;4476778;32;33642;-70
2024/01/12 00:38:17;;;;;;;;;;;;;;;8.23;36.00;100449.12;4463914;32;31141;-70
2024/01/12 00:40:45;;;;;;;;;;;;;;;8.36;36.09;100459.41;4484064;32;34757;-69
2024/01/12 00:43:12;;;;;;;;;;;;;;;7.98;36.67;100463.00;4481488;32;34829;-69
2024/01/12 00:45:39;;;;;;;;;;;;;;;8.11;36.69;100453.47;4483654;32;33558;-71
2024/01/12 00:48:07;;;;;;;;;;;;;;;8.07;36.70;100458.44;4478521;32;32608;-69
2024/01/12 00:50:35;;;;;;;;;;;;;;;8.81;35.38;100463.16;4470074;32;34173;-70
2024/01/12 00:53:03;;;;;;;;;;;;;;;9.01;34.95;100455.75;4473818;32;33757;-69
2024/01/12 00:55:30;;;;;;;;;;;;;;;8.82;35.18;100462.34;4477593;32;34169;-70
2024/01/12 00:57:57;;;;;;;;;;;;;;;8.90;35.06;100465.41;4478354;32;34298;-71
2024/01/12 01:00:25;;;;;;;;;;;;;;;8.70;35.43;100464.19;4477579;32;34934;-70
2024/01/12 01:02:52;;;;;;;;;;;;;;;8.59;35.74;100465.19;4479807;32;33898;-69
2024/01/12 01:05:20;;;;;;;;;;;;;;;8.21;36.33;100467.09;4478502;32;33788;-70
2024/01/12 01:07:47;;;;;;;;;;;;;;;8.64;35.88;100474.13;4479393;32;33420;-70
2024/01/12 01:10:15;;;;;;;;;;;;;;;8.35;35.88;100475.72;4483404;32;34190;-69
2024/01/12 01:12:42;;;;;;;;;;;;;;;8.93;35.12;100477.66;4481624;32;34264;-70
2024/01/12 01:15:13;;;;;;;;;;;;;;;8.45;35.55;100477.22;4477134;32;34309;-70
2024/01/12 01:17:43;;;;;;;;;;;;;;;8.28;36.37;100479.56;4484486;32;33917;-70
2024/01/12 01:20:11;;;;;;;;;;;;;;;8.26;36.33;100488.03;4481629;32;35047;-70
2024/01/12 01:22:38;;;;;;;;;;;;;;;8.31;36.50;100489.22;4461498;32;33645;-71
2024/01/12 01:25:06;;;;;;;;;;;;;;;8.50;36.05;100491.34;4481417;32;34099;-70
2024/01/12 01:27:34;;;;;;;;;;;;;;;8.37;36.23;100494.78;4463870;32;33177;-70
2024/01/12 01:30:03;;;;;;;;;;;;;;;8.35;36.32;100491.19;4469840;32;33618;-70
2024/01/12 01:32:30;;;;;;;;;;;;;;;8.62;36.09;100475.72;4471173;32;34900;-70
2024/01/12 01:34:59;;;;;;;;;;;;;;;8.31;36.36;100476.31;4466512;32;33985;-71
2024/01/12 01:37:26;;;;;;;;;;;;;;;8.54;36.10;100482.09;4482531;32;33120;-71
2024/01/12 01:39:54;;;;;;;;;;;;;;;8.65;35.89;100483.66;4485059;32;34266;-70
2024/01/12 01:42:21;;;;;;;;;;;;;;;8.93;35.44;100483.69;4469168;32;31876;-70
2024/01/12 01:44:49;;;;;;;;;;;;;;;8.96;35.42;100480.41;4459727;32;33889;-70
2024/01/12 01:47:16;;;;;;;;;;;;;;;9.02;35.24;100479.12;4471193;32;33915;-70
2024/01/12 01:49:43;;;;;;;;;;;;;;;9.29;34.66;100478.09;4469111;32;34757;-71
2024/01/12 01:52:11;;;;;;;;;;;;;;;8.85;35.39;100474.59;4459862;32;33819;-71
2024/01/12 01:54:38;;;;;;;;;;;;;;;9.21;35.08;100472.47;4482507;32;34216;-70
2024/01/12 01:57:06;;;;;;;;;;;;;;;8.65;35.74;100476.81;4479633;32;33317;-70
2024/01/12 01:59:36;;;;;;;;;;;;;;;9.04;35.13;100479.22;4484889;32;35341;-70
2024/01/12 02:02:04;;;;;;;;;;;;;;;8.95;35.31;100470.87;4461264;32;33957;-70
2024/01/12 02:04:32;;;;;;;;;;;;;;;9.27;34.51;100470.25;4480533;32;33947;-71
2024/01/12 02:06:59;;;;;;;;;;;;;;;9.11;34.64;100467.53;4455024;32;33384;-71
2024/01/12 02:09:28;;;;;;;;;;;;;;;9.19;34.62;100477.56;4480833;32;34077;-70
2024/01/12 02:11:56;;;;;;;;;;;;;;;8.95;35.15;100466.59;4482662;32;35331;-70
2024/01/12 02:14:23;;;;;;;;;;;;;;;8.75;35.61;100475.72;4483357;32;34022;-71
2024/01/12 02:16:53;;;;;;;;;;;;;;;8.56;36.00;100475.34;4465578;32;33917;-71
2024/01/12 02:19:21;;;;;;;;;;;;;;;8.48;36.10;100484.28;4461512;32;34436;-71
2024/01/12 02:21:48;;;;;;;;;;;;;;;8.74;35.73;100475.59;4482878;32;33944;-71
2024/01/12 02:24:16;;;;;;;;;;;;;;;8.79;35.49;100485.44;4478673;32;34006;-71
2024/01/12 02:26:43;;;;;;;;;;;;;;;9.13;34.90;100492.69;4477942;32;33288;-71
2024/01/12 02:29:11;;;;;;;;;;;;;;;9.62;34.13;100490.50;4478252;32;34791;-71
2024/01/12 02:31:39;;;;;;;;;;;;;;;9.20;34.81;100484.50;4466135;32;34624;-71
2024/01/12 02:34:06;;;;;;;;;;;;;;;8.84;35.47;100494.34;4478849;32;34257;-71
2024/01/12 02:36:34;;;;;;;;;;;;;;;8.59;36.36;100496.19;4483663;32;33336;-71
2024/01/12 02:39:01;;;;;;;;;;;;;;;8.96;35.57;100503.66;4467324;32;31928;-71
2024/01/12 02:41:29;;;;;;;;;;;;;;;8.97;35.71;100500.28;4478886;32;34025;-71
2024/01/12 02:43:56;;;;;;;;;;;;;;;9.07;35.64;100501.75;4481461;32;33794;-71
2024/01/12 02:46:24;;;;;;;;;;;;;;;8.38;36.63;100513.72;4482562;32;32049;-72
2024/01/12 02:48:51;;;;;;;;;;;;;;;8.42;37.02;100511.50;4481606;32;34306;-72
2024/01/12 02:51:19;;;;;;;;;;;;;;;8.10;37.62;100513.62;4469301;32;34185;-72
2024/01/12 02:54:04;;;;;;;;;;;;;;;8.15;37.64;100522.53;4484612;32;34377;-71
2024/01/12 02:56:34;;;;;;;;;;;;;;;8.16;37.66;100529.50;4473008;32;33435;-72
2024/01/12 02:59:01;;;;;;;;;;;;;;;8.23;37.38;100521.38;4479233;32;35480;-72
2024/01/12 03:01:29;;;;;;;;;;;;;;;8.27;37.57;100524.25;4481074;32;34215;-72
2024/01/12 03:03:56;;;;;;;;;;;;;;;8.56;36.71;100521.81;4465692;32;32562;-72
2024/01/12 03:06:23;;;;;;;;;;;;;;;8.01;37.73;100524.22;4468603;32;33185;-72
2024/01/12 03:08:51;;;;;;;;;;;;;;;8.56;36.71;100516.66;4483870;32;33801;-72
2024/01/12 03:11:19;;;;;;;;;;;;;;;8.56;36.45;100519.25;4483278;32;34189;-72
2024/01/12 03:13:46;;;;;;;;;;;;;;;8.70;36.33;100515.84;4479192;32;31792;-72
2024/01/12 03:16:17;;;;;;;;;;;;;;;8.71;36.12;100522.81;4480782;32;34145;-72
2024/01/12 03:18:45;;;;;;;;;;;;;;;8.64;36.61;100518.91;4467327;32;34873;-72
2024/01/12 03:21:12;;;;;;;;;;;;;;;8.83;36.07;100520.09;4476492;32;33923;-72
2024/01/12 03:23:40;;;;;;;;;;;;;;;8.00;37.46;100522.44;4468381;32;34856;-72
2024/01/12 03:26:07;;;;;;;;;;;;;;;8.77;36.37;100514.53;4473931;32;32831;-72
2024/01/12 03:28:34;;;;;;;;;;;;;;;8.85;35.85;100521.97;4479559;32;34279;-72
2024/01/12 03:31:06;;;;;;;;;;;;;;;8.65;35.97;100512.97;4481821;32;33314;-72
2024/01/12 03:33:33;;;;;;;;;;;;;;;8.46;36.65;100526.38;4478447;32;34097;-72
2024/01/12 03:36:05;;;;;;;;;;;;;;;8.43;36.73;100514.97;4482507;32;33005;-72
2024/01/12 03:38:32;;;;;;;;;;;;;;;8.19;36.93;100521.94;4478596;32;36638;-72
2024/01/12 03:41:00;;;;;;;;;;;;;;;8.18;36.74;100518.50;4477460;32;34408;-72
2024/01/12 03:43:27;;;;;;;;;;;;;;;8.91;35.36;100518.00;4463152;32;33464;-72
2024/01/12 03:45:55;;;;;;;;;;;;;;;8.27;36.65;100520.78;4478631;32;33472;-72
2024/01/12 03:48:22;;;;;;;;;;;;;;;8.04;36.74;100522.75;4475455;32;33805;-72
2024/01/12 03:50:49;;;;;;;;;;;;;;;8.37;36.44;100512.84;4478841;32;33563;-72
2024/01/12 03:53:17;;;;;;;;;;;;;;;9.05;35.44;100519.75;4477386;32;34764;-72
2024/01/12 03:55:44;;;;;;;;;;;;;;;8.22;36.76;100535.97;4480209;32;33471;-72
2024/01/12 03:58:12;;;;;;;;;;;;;;;8.36;36.62;100535.97;4480166;32;33833;-71
2024/01/12 04:00:39;;;;;;;;;;;;;;;8.73;35.85;100531.53;4458274;32;34673;-72
2024/01/12 04:03:07;;;;;;;;;;;;;;;8.34;36.51;100541.03;4473857;32;33896;-72
2024/01/12 04:05:34;;;;;;;;;;;;;;;7.55;38.48;100541.75;4475751;32;33070;-72
2024/01/12 04:08:02;;;;;;;;;;;;;;;7.62;38.16;100534.53;4458812;32;33658;-72
2024/01/12 04:10:30;;;;;;;;;;;;;;;7.45;38.90;100535.06;4481137;32;34780;-71
2024/01/12 04:12:57;;;;;;;;;;;;;;;8.08;37.51;100537.63;4468303;32;33369;-72
2024/01/12 04:15:24;;;;;;;;;;;;;;;7.95;37.34;100540.19;4479463;32;33343;-71
2024/01/12 04:17:52;;;;;;;;;;;;;;;7.95;37.75;100539.31;4479407;32;33864;-71
2024/01/12 04:20:20;;;;;;;;;;;;;;;7.67;38.12;100533.19;4485429;32;34756;-72
2024/01/12 04:22:47;;;;;;;;;;;;;;;7.02;38.94;100538.13;4481190;32;33912;-72
2024/01/12 04:25:15;;;;;;;;;;;;;;;7.87;37.86;100536.22;4483560;32;33132;-71
2024/01/12 04:27:42;;;;;;;;;;;;;;;8.04;37.63;100543.38;4462969;32;34333;-71
2024/01/12 04:30:10;;;;;;;;;;;;;;;7.81;38.21;100540.97;4468390;32;33790;-72
2024/01/12 04:32:37;;;;;;;;;;;;;;;7.60;38.54;100546.44;4484124;32;33876;-72
2024/01/12 04:35:05;;;;;;;;;;;;;;;6.93;39.81;100546.88;4482552;32;34005;-72
2024/01/12 04:37:33;;;;;;;;;;;;;;;7.19;39.54;100547.03;4484263;32;34253;-71
2024/01/12 04:40:00;;;;;;;;;;;;;;;6.61;41.23;100548.94;4475845;32;33948;-72
2024/01/12 04:42:28;;;;;;;;;;;;;;;7.07;39.91;100544.50;4469930;32;34170;-71
2024/01/12 04:44:55;;;;;;;;;;;;;;;6.56;40.52;100554.53;4475849;32;33366;-71
2024/01/12 04:47:23;;;;;;;;;;;;;;;6.75;40.35;100547.34;4483556;32;34741;-71
2024/01/12 04:49:50;;;;;;;;;;;;;;;7.32;39.30;100547.88;4478930;32;34272;-71
2024/01/12 04:52:17;;;;;;;;;;;;;;;6.60;40.73;100547.12;4479053;32;33777;-71
2024/01/12 04:54:45;;;;;;;;;;;;;;;7.10;39.73;100541.25;4484715;32;33805;-72
2024/01/12 04:57:13;;;;;;;;;;;;;;;6.80;40.19;100560.56;4482297;32;33965;-71
2024/01/12 04:59:41;;;;;;;;;;;;;;;6.94;39.77;100569.28;4481213;32;35697;-71
2024/01/12 05:02:08;;;;;;;;;;;;;;;6.55;40.74;100573.31;4480235;32;34147;-72
2024/01/12 05:04:36;;;;;;;;;;;;;;;6.53;41.40;100580.03;4483839;32;33764;-71
2024/01/12 05:07:03;;;;;;;;;;;;;;;6.48;41.35;100575.47;4484243;31;34849;-71
2024/01/12 05:09:31;;;;;;;;;;;;;;;6.84;40.83;100580.63;4485124;32;34213;-71
2024/01/12 05:12:03;;;;;;;;;;;;;;;6.95;40.71;100586.53;4484181;32;33885;-72
2024/01/12 05:14:31;;;;;;;;;;;;;;;6.77;41.22;100586.97;4460062;32;34617;-72
2024/01/12 05:16:59;;;;;;;;;;;;;;;7.00;40.90;100586.06;4485173;32;34204;-72
2024/01/12 05:19:26;;;;;;;;;;;;;;;6.79;41.49;100603.44;4484186;32;34917;-72
2024/01/12 05:21:54;;;;;;;;;;;;;;;7.53;39.54;100594.88;4484941;32;34161;-72
2024/01/12 05:24:21;;;;;;;;;;;;;;;6.56;40.59;100595.72;4474076;32;34063;-71
2024/01/12 05:26:48;;;;;;;;;;;;;;;6.42;41.05;100598.19;4479131;32;34922;-71
2024/01/12 05:29:16;;;;;;;;;;;;;;;6.57;40.97;100602.69;4467282;32;34809;-72
2024/01/12 05:31:43;;;;;;;;;;;;;;;6.81;40.69;100600.97;4475699;32;34104;-71
2024/01/12 05:34:11;;;;;;;;;;;;;;;6.50;41.17;100612.50;4463754;32;31337;-72
2024/01/12 05:36:38;;;;;;;;;;;;;;;6.02;42.23;100620.91;4476712;32;33825;-71
2024/01/12 05:39:06;;;;;;;;;;;;;;;6.08;42.15;100626.53;4473615;32;34035;-72
2024/01/12 05:41:33;;;;;;;;;;;;;;;6.24;41.69;100633.72;4476678;32;34543;-72
2024/01/12 05:44:01;;;;;;;;;;;;;;;6.42;41.69;100634.22;4477277;32;33257;-71
2024/01/12 05:46:28;;;;;;;;;;;;;;;6.82;40.57;100642.31;4482393;32;33986;-72
2024/01/12 05:48:56;;;;;;;;;;;;;;;6.91;40.52;100643.75;4473730;32;34997;-71
2024/01/12 05:51:24;;;;;;;;;;;;;;;6.68;40.70;100648.09;4481876;32;33950;-72
2024/01/12 05:53:51;;;;;;;;;;;;;;;7.57;39.01;100651.94;4468225;32;33347;-71
2024/01/12 05:56:18;;;;;;;;;;;;;;;8.22;37.52;100653.78;4468227;32;34121;-72
2024/01/12 05:58:46;;;;;;;;;;;;;;;8.05;37.71;100661.31;4484649;32;34798;-71
2024/01/12 06:01:14;;;;;;;;;;;;;;;8.15;37.28;100649.00;4482185;32;34096;-72
2024/01/12 06:03:41;;;;;;;;;;;;;;;7.71;38.04;100652.00;4477873;32;33171;-72
2024/01/12 06:06:08;;;;;;;;;;;;;;;7.74;38.25;100641.91;4462859;32;33922;-72
2024/01/12 06:08:36;;;;;;;;;;;;;;;7.73;38.23;100640.13;4483377;32;34263;-72
2024/01/12 06:11:04;;;;;;;;;;;;;;;6.82;39.93;100647.44;4473839;32;33935;-72
2024/01/12 06:13:32;;;;;;;;;;;;;;;7.25;38.67;100650.53;4456204;32;33058;-72
2024/01/12 06:15:59;;;;;;;;;;;;;;;7.27;39.04;100651.56;4467479;32;35029;-72
2024/01/12 06:18:26;;;;;;;;;;;;;;;6.81;39.99;100662.78;4483134;32;34128;-73
2024/01/12 06:20:54;;;;;;;;;;;;;;;7.17;39.41;100669.72;4465607;32;33915;-71
2024/01/12 06:23:22;;;;;;;;;;;;;;;7.04;39.64;100669.62;4478594;32;32709;-72
2024/01/12 06:25:50;;;;;;;;;;;;;;;7.25;39.32;100666.00;4470160;32;34361;-72
2024/01/12 06:28:17;;;;;;;;;;;;;;;7.05;39.96;100666.25;4461257;32;33545;-72
2024/01/12 06:30:44;;;;;;;;;;;;;;;6.61;40.75;100671.63;4479008;32;32301;-72
2024/01/12 06:33:15;;;;;;;;;;;;;;;6.88;40.25;100677.91;4476404;32;33269;-72
2024/01/12 06:35:43;;;;;;;;;;;;;;;6.86;40.38;100675.22;4458804;32;34171;-72
2024/01/12 06:38:11;;;;;;;;;;;;;;;6.88;40.24;100670.19;4467928;32;33618;-72
2024/01/12 06:40:38;;;;;;;;;;;;;;;7.09;39.84;100678.59;4480552;32;34069;-72
2024/01/12 06:43:06;;;;;;;;;;;;;;;7.27;39.90;100669.59;4466022;32;31972;-72
2024/01/12 06:45:33;;;;;;;;;;;;;;;7.13;39.92;100670.28;4480209;32;34148;-72
2024/01/12 06:48:01;;;;;;;;;;;;;;;7.23;40.01;100679.59;4478848;32;34264;-72
2024/01/12 06:50:29;;;;;;;;;;;;;;;7.56;39.46;100683.66;4484771;32;33814;-72
2024/01/12 06:52:57;;;;;;;;;;;;;;;7.57;39.39;100680.31;4481009;32;33267;-72
2024/01/12 06:55:24;;;;;;;;;;;;;;;7.33;39.53;100678.56;4445638;32;32848;-72
2024/01/12 06:57:52;;;;;;;;;;;;;;;7.72;39.18;100674.44;4448896;32;34867;-72
2024/01/12 07:00:19;;;;;;;;;;;;;;;7.54;39.33;100674.94;4445944;32;34234;-72
2024/01/12 07:02:47;;;;;;;;;;;;;;;7.03;40.09;100679.03;4443025;32;32997;-72
2024/01/12 07:05:14;;;;;;;;;;;;;;;7.45;39.38;100674.25;4442606;32;33879;-72
2024/01/12 07:07:43;;;;;;;;;;;;;;;7.69;38.76;100685.44;4444405;32;35179;-72
2024/01/12 07:10:13;;;;;;;;;;;;;;;7.91;38.45;100692.97;4448594;32;33175;-72
2024/01/12 07:12:41;;;;;;;;;;;;;;;7.58;38.79;100697.56;4447625;32;32403;-72
2024/01/12 07:15:08;;;;;;;;;;;;;;;7.80;38.70;100701.63;4445082;32;33868;-72
2024/01/12 07:17:36;;;;;;;;;;;;;;;7.00;40.17;100711.41;4446322;32;34192;-72
2024/01/12 07:20:05;;;;;;;;;;;;;;;7.84;38.70;100711.37;4445435;32;34727;-72
2024/01/12 07:22:33;;;;;;;;;;;;;;;7.48;39.29;100715.75;4441849;32;34084;-72
2024/01/12 07:25:00;;;;;;;;;;;;;;;7.51;39.32;100720.22;4443375;32;34921;-73
2024/01/12 07:27:27;;;;;;;;;;;;;;;7.55;39.72;100724.78;4442904;32;33885;-72
2024/01/12 07:29:55;;;;;;;;;;;;;;;7.35;39.94;100720.78;4444286;32;34251;-71
2024/01/12 07:32:22;;;;;;;;;;;;;;;7.74;39.32;100717.56;4448755;32;33152;-72
2024/01/12 07:34:50;;;;;;;;;;;;;;;7.54;39.70;100726.50;4450098;32;33873;-72
2024/01/12 07:37:18;;;;;;;;;;;;;;;7.53;39.78;100722.09;4446684;32;34011;-72
2024/01/12 07:39:46;;;;;;;;;;;;;;;7.56;39.75;100717.19;4448814;32;32888;-72
2024/01/12 07:42:14;;;;;;;;;;;;;;;7.15;40.93;100715.09;4446899;32;31723;-72
2024/01/12 07:44:41;;;;;;;;;;;;;;;7.48;40.26;100714.06;4449274;32;35306;-72
2024/01/12 07:47:13;;;;;;;;;;;;;;;6.87;41.66;100718.19;4449478;32;33293;-72
2024/01/12 07:49:41;;;;;;;;;;;;;;;7.01;41.16;100718.31;4446554;32;34092;-71
2024/01/12 07:52:09;;;;;;;;;;;;;;;6.97;41.65;100718.87;4449751;32;33358;-73
2024/01/12 07:54:45;;;;;;;;;;;;;;;7.33;40.92;100715.53;4426246;32;893001;-72
2024/01/12 07:57:13;;;;;;;;;;;;;;;7.08;41.74;100713.72;4478484;32;34234;-72
2024/01/12 07:59:42;;;;;;;;;;;;;;;6.91;42.00;100716.75;4469967;32;31930;-72
2024/01/12 08:02:10;;;;;;;;;;;;;;;7.17;41.54;100718.69;4483289;32;34014;-72
2024/01/12 08:04:41;;;;;;;;;;;;;;;6.66;42.42;100735.56;4471251;32;34917;-72
2024/01/12 08:07:09;;;;;;;;;;;;;;;6.00;44.37;100734.75;4479911;32;34918;-72
2024/01/12 08:09:37;;;;;;;;;;;;;;;6.58;43.44;100734.06;4469002;32;34155;-72
2024/01/12 08:12:05;;;;;;;;;;;;;;;6.38;43.65;100740.28;4454726;32;33897;-71
2024/01/12 08:14:32;;;;;;;;;;;;;;;6.32;43.71;100739.81;4481543;32;34145;-71
2024/01/12 08:17:00;;;;;;;;;;;;;;;6.14;44.15;100738.37;4467585;32;34031;-71
2024/01/12 08:19:28;;;;;;;;;;;;;;;6.46;43.43;100741.75;4472478;32;34034;-72
2024/01/12 08:21:56;;;;;;;;;;;;;;;6.40;43.22;100754.16;4475654;32;33464;-71
2024/01/12 08:24:43;;;;;;;;;;;;;;;6.76;42.88;100759.37;4471303;32;35942;-72
2024/01/12 08:27:30;;;;;;;;;;;;;;;6.60;42.82;100757.34;4482199;32;35115;-71
2024/01/12 08:29:57;;;;;;;;;;;;;;;6.50;43.79;100761.78;4477708;32;33844;-71
2024/01/12 08:32:25;;;;;;;;;;;;;;;6.87;42.84;100768.81;4468739;32;33441;-72
2024/01/12 08:34:53;;;;;;;;;;;;;;;7.01;42.74;100767.28;4481237;32;33924;-71
2024/01/12 08:37:20;;;;;;;;;;;;;;;7.31;41.66;100766.06;4464108;32;34686;-72
2024/01/12 08:39:48;;;;;;;;;;;;;;;7.59;41.37;100771.56;4475182;32;34822;-71
2024/01/12 08:42:16;;;;;;;;;;;;;;;6.88;42.35;100779.25;4482903;32;32760;-72
2024/01/12 08:44:43;;;;;;;;;;;;;;;6.73;42.71;100779.78;4474522;32;33686;-72
2024/01/12 08:47:11;;;;;;;;;;;;;;;6.98;42.26;100772.22;4468584;32;33821;-71
2024/01/12 08:49:38;;;;;;;;;;;;;;;7.13;41.95;100778.50;4467962;32;34875;-72
2024/01/12 08:52:06;;;;;;;;;;;;;;;6.96;42.40;100778.94;4481125;32;33783;-72
2024/01/12 08:54:33;;;;;;;;;;;;;;;6.70;45.65;100780.41;4458537;32;34684;-69
2024/01/12 08:57:01;;;;;;;;;;;;;;;7.74;44.24;100784.62;4473826;32;34997;-71
2024/01/12 08:59:28;;;;;;;;;;;;;;;7.36;45.27;100776.69;4485547;32;33876;-71
2024/01/12 09:01:57;;;;;;;;;;;;;;;8.03;42.53;100776.37;4484612;32;33420;-69
2024/01/12 09:04:25;;;;;;;;;;;;;;;7.47;42.44;100781.88;4483797;32;33924;-72
2024/01/12 09:06:53;;;;;;;;;;;;;;;7.60;44.26;100785.34;4483042;32;34158;-69
2024/01/12 09:09:21;;;;;;;;;;;;;;;7.96;41.13;100778.41;4479077;32;34704;-70
2024/01/12 09:11:48;;;;;;;;;;;;;;;7.89;40.36;100787.41;4479608;32;33377;-69
2024/01/12 09:14:15;;;;;;;;;;;;;;;7.86;40.16;100787.19;4484813;32;33573;-69
2024/01/12 09:16:43;;;;;;;;;;;;;;;7.71;40.41;100789.59;4485509;32;34094;-70
2024/01/12 09:19:10;;;;;;;;;;;;;;;7.37;41.22;100791.41;4485948;32;33988;-70
2024/01/12 09:21:38;;;;;;;;;;;;;;;7.27;41.17;100793.28;4481043;32;34006;-69
2024/01/12 09:24:06;;;;;;;;;;;;;;;7.59;40.69;100796.41;4483596;32;34180;-69
2024/01/12 09:26:34;;;;;;;;;;;;;;;7.73;40.99;100800.03;4484129;32;34887;-69
2024/01/12 09:29:01;;;;;;;;;;;;;;;8.27;39.70;100796.97;4477619;32;34026;-69
2024/01/12 09:31:29;;;;;;;;;;;;;;;8.15;39.27;100801.25;4472441;32;33283;-69
2024/01/12 09:33:56;;;;;;;;;;;;;;;8.20;39.11;100797.31;4478828;32;34228;-69
2024/01/12 09:36:24;;;;;;;;;;;;;;;8.18;39.36;100801.50;4458914;32;34122;-70
2024/01/12 09:38:54;;;;;;;;;;;;;;;7.97;39.86;100799.19;4482103;32;33781;-69
2024/01/12 09:41:27;;;;;;;;;;;;;;;8.23;39.06;100795.88;4485324;32;33024;-69
2024/01/12 09:43:56;;;;;;;;;;;;;;;8.15;39.04;100796.09;4471634;32;34897;-69
2024/01/12 09:46:23;;;;;;;;;;;;;;;8.05;39.40;100797.13;4470968;32;33943;-70
2024/01/12 09:48:51;;;;;;;;;;;;;;;7.67;39.71;100800.47;4458605;32;34473;-70
2024/01/12 09:51:19;;;;;;;;;;;;;;;8.19;39.21;100803.25;4481466;32;33245;-70
2024/01/12 09:53:46;;;;;;;;;;;;;;;8.71;37.88;100799.19;4463635;32;34164;-70
2024/01/12 09:56:14;;;;;;;;;;;;;;;8.75;37.76;100796.03;4462087;32;34620;-70
2024/01/12 09:58:42;;;;;;;;;;;;;;;8.38;38.73;100801.22;4478917;32;33550;-71
2024/01/12 10:01:11;;;;;;;;;;;;;;;8.96;37.49;100799.16;4456303;32;33308;-70
2024/01/12 10:03:39;;;;;;;;;;;;;;;9.14;37.04;100798.59;4473367;32;34535;-70
2024/01/12 10:06:07;;;;;;;;;;;;;;;8.76;37.82;100799.47;4479158;32;34956;-70
2024/01/12 10:08:37;;;;;;;;;;;;;;;8.82;37.69;100797.31;4472454;32;34734;-71
2024/01/12 10:11:05;;;;;;;;;;;;;;;8.70;37.74;100794.78;4472036;32;33737;-71
2024/01/12 10:13:33;;;;;;;;;;;;;;;8.74;37.96;100796.78;4474356;32;34282;-70
2024/01/12 10:16:01;;;;;;;;;;;;;;;8.93;37.71;100800.63;4473880;32;35008;-71
2024/01/12 10:18:29;;;;;;;;;;;;;;;8.82;37.88;100787.88;4478868;32;33653;-71
2024/01/12 10:21:00;;;;;;;;;;;;;;;9.04;37.50;100784.16;4469974;32;33443;-71
2024/01/12 10:23:27;;;;;;;;;;;;;;;9.23;37.47;100787.16;4464937;32;34835;-71
2024/01/12 10:25:56;;;;;;;;;;;;;;;9.45;37.01;100788.56;4476784;32;34154;-71
2024/01/12 10:28:26;;;;;;;;;;;;;;;8.97;37.51;100794.88;4467184;32;34572;-71
2024/01/12 10:30:53;;;;;;;;;;;;;;;9.67;36.49;100792.53;4458234;32;34009;-71
2024/01/12 10:33:22;;;;;;;;;;;;;;;9.48;36.37;100793.91;4482991;32;35384;-71
2024/01/12 10:35:59;;;;;;;;;;;;;;;9.35;36.66;100794.81;4481202;32;33745;-72
2024/01/12 10:38:27;;;;;;;;;;;;;;;9.99;36.07;100789.41;4469822;32;33828;-71
2024/01/12 10:40:55;;;;;;;;;;;;;;;9.77;36.33;100784.56;4469659;32;33982;-72
2024/01/12 10:43:24;;;;;;;;;;;;;;;10.33;35.24;100779.47;4466655;32;34471;-72
2024/01/12 10:45:52;;;;;;;;;;;;;;;10.29;35.54;100774.88;4480921;32;34583;-72
2024/01/12 10:48:20;;;;;;;;;;;;;;;9.92;36.11;100774.28;4484932;32;33853;-72
2024/01/12 10:50:48;;;;;;;;;;;;;;;9.50;36.88;100774.22;4484707;32;33256;-71
2024/01/12 10:53:31;;;;;;;;;;;;;;;9.29;37.58;100772.84;4469491;32;34179;-72
2024/01/12 10:55:59;;;;;;;;;;;;;;;10.04;36.25;100765.59;4470267;32;34979;-72
2024/01/12 10:58:26;;;;;;;;;;;;;;;10.28;35.28;100754.09;4483610;32;34501;-73
2024/01/12 11:00:54;;;;;;;;;;;;;;;10.56;35.11;100761.84;4461327;32;32581;-73
2024/01/12 11:03:21;;;;;;;;;;;;;;;10.28;35.40;100759.25;4457036;32;34122;-73
2024/01/12 11:05:49;;;;;;;;;;;;;;;10.61;34.50;100760.44;4470729;32;33927;-72
2024/01/12 11:08:19;;;;;;;;;;;;;;;10.18;35.08;100766.47;4483345;31;34178;-72
2024/01/12 11:10:49;;;;;;;;;;;;;;;10.41;35.04;100759.22;4470075;32;33220;-72
2024/01/12 11:13:17;;;;;;;;;;;;;;;10.62;34.38;100757.03;4451658;32;32644;-72
2024/01/12 11:15:46;;;;;;;;;;;;;;;10.16;35.04;100752.53;4472348;32;33936;-73
2024/01/12 11:18:14;;;;;;;;;;;;;;;10.26;35.33;100759.16;4459399;32;34698;-73
2024/01/12 11:20:43;;;;;;;;;;;;;;;10.26;34.79;100756.56;4471487;32;32929;-74
2024/01/12 11:23:11;;;;;;;;;;;;;;;10.27;36.29;100747.97;4474650;32;34205;-74
2024/01/12 11:25:38;;;;;;;;;;;;;;;9.75;35.60;100747.34;4457922;32;34102;-73
2024/01/12 11:28:07;;;;;;;;;;;;;;;9.17;36.68;100747.97;4469716;32;34652;-74
2024/01/12 11:30:39;;;;;;;;;;;;;;;9.13;36.95;100756.31;4484405;32;33230;-74
2024/01/12 11:33:06;;;;;;;;;;;;;;;9.62;36.30;100748.28;4469926;32;34081;-74
2024/01/12 11:35:34;;;;;;;;;;;;;;;9.86;35.85;100748.03;4476708;32;34389;-74
2024/01/12 11:38:10;;;;;;;;;;;;;;;9.64;36.08;100750.16;4481419;32;34110;-74
2024/01/12 11:40:38;;;;;;;;;;;;;;;9.28;36.63;100750.38;4467597;32;33118;-74
2024/01/12 11:43:05;;;;;;;;;;;;;;;9.56;36.54;100753.94;4483644;32;34199;-74
2024/01/12 11:45:34;;;;;;;;;;;;;;;10.11;35.34;100746.16;4482555;32;34093;-75
2024/01/12 11:48:02;;;;;;;;;;;;;;;10.15;35.04;100734.31;4479700;32;33503;-75
2024/01/12 11:50:30;;;;;;;;;;;;;;;10.14;35.71;100729.91;4481654;32;33341;-74
2024/01/12 11:52:57;;;;;;;;;;;;;;;10.74;34.66;100734.44;4482830;32;33876;-75
2024/01/12 11:55:25;;;;;;;;;;;;;;;10.53;34.97;100728.00;4483954;32;34279;-74
2024/01/12 11:57:53;;;;;;;;;;;;;;;10.54;34.92;100724.59;4453850;32;33976;-76
2024/01/12 12:00:21;;;;;;;;;;;;;;;10.87;34.40;100723.09;4482620;32;33886;-76
2024/01/12 12:02:49;;;;;;;;;;;;;;;10.21;35.28;100721.72;4483650;32;34219;-75
2024/01/12 12:05:23;;;;;;;;;;;;;;;10.69;34.39;100730.69;4467677;32;34712;-76
2024/01/12 12:07:51;;;;;;;;;;;;;;;10.53;35.01;100730.59;4478233;32;33775;-75
2024/01/12 12:10:18;;;;;;;;;;;;;;;11.08;33.79;100722.53;4472475;32;33540;-75
2024/01/12 12:12:59;;;;;;;;;;;;;;;10.70;34.34;100722.13;4475424;32;34926;-75
2024/01/12 12:15:27;;;;;;;;;;;;;;;10.63;34.39;100722.56;4472424;32;35643;-76
2024/01/12 12:17:54;;;;;;;;;;;;;;;10.45;35.17;100716.25;4474697;32;33843;-77
2024/01/12 12:20:23;;;;;;;;;;;;;;;10.50;35.38;100709.66;4462440;32;33439;-75
2024/01/12 12:22:51;;;;;;;;;;;;;;;10.68;34.69;100710.78;4463852;32;33971;-75
2024/01/12 12:25:18;;;;;;;;;;;;;;;10.41;35.02;100710.00;4480960;32;33009;-75
2024/01/12 12:27:49;;;;;;;;;;;;;;;10.58;35.02;100703.25;4469591;32;34047;-76
2024/01/12 12:30:17;;;;;;;;;;;;;;;10.61;34.90;100703.44;4469811;32;32581;-77
2024/01/12 12:32:45;;;;;;;;;;;;;;;10.56;34.71;100704.84;4458615;32;34392;-77
2024/01/12 12:35:14;;;;;;;;;;;;;;;10.19;35.18;100707.78;4460542;32;32039;-75
2024/01/12 12:37:41;;;;;;;;;;;;;;;9.33;36.38;100717.94;4478486;32;33635;-74
2024/01/12 12:40:09;;;;;;;;;;;;;;;9.70;36.09;100699.59;4459462;32;32966;-75
2024/01/12 12:42:41;;;;;;;;;;;;;;;9.93;36.00;100704.50;4450203;32;32697;-76
2024/01/12 12:45:09;;;;;;;;;;;;;;;10.32;35.22;100699.13;4459505;32;34658;-76
2024/01/12 12:47:37;;;;;;;;;;;;;;;10.36;35.15;100701.97;4468801;32;32831;-77
2024/01/12 12:50:05;;;;;;;;;;;;;;;10.61;34.59;100700.84;4462668;32;33166;-77